createdAt,value
2022-11-09T00:02:10.646Z,1002.5
2022-11-09T00:04:58.031Z,1002.5
2022-11-09T00:07:45.381Z,1002.3
2022-11-09T00:10:32.722Z,1002.4
2022-11-09T00:13:21.149Z,1002.5
2022-11-09T00:16:09.066Z,1002.5
2022-11-09T00:18:59.314Z,1002.5
2022-11-09T00:21:46.730Z,1002.5
2022-11-09T00:24:34.114Z,1002.5
2022-11-09T00:27:22.127Z,1002.5
2022-11-09T00:30:09.775Z,1002.6
2022-11-09T00:32:57.944Z,1002.6
2022-11-09T00:35:45.353Z,1002.6
2022-11-09T00:38:32.671Z,1002.5
2022-11-09T00:41:21.168Z,1002.6
2022-11-09T00:44:09.112Z,1002.6
2022-11-09T00:46:56.747Z,1002.6
2022-11-09T00:49:44.182Z,1002.5
2022-11-09T00:52:31.701Z,1002.5
2022-11-09T00:55:19.013Z,1002.5
2022-11-09T00:58:08.548Z,1002.4
2022-11-09T01:00:56.106Z,1002.4
2022-11-09T01:03:45.234Z,1002.6
2022-11-09T01:06:34.146Z,1002.4
2022-11-09T01:09:22.295Z,1002.4
2022-11-09T01:12:09.577Z,1002.5
2022-11-09T01:14:57.478Z,1002.4
2022-11-09T01:17:45.563Z,1002.3
2022-11-09T01:20:32.964Z,1002.4
2022-11-09T01:23:25.140Z,1002.3
2022-11-09T01:26:12.584Z,1002.4
2022-11-09T01:29:00.739Z,1002.3
2022-11-09T01:31:48.428Z,1002.2
2022-11-09T01:34:35.828Z,1002.3
2022-11-09T01:37:25.428Z,1002.2
2022-11-09T01:40:12.742Z,1002.2
2022-11-09T01:43:00.287Z,1002.2
2022-11-09T01:45:52.636Z,1002.2
2022-11-09T01:48:44.571Z,1002.2
2022-11-09T01:51:36.177Z,1002.2
2022-11-09T01:54:27.443Z,1002.2
2022-11-09T01:57:17.426Z,1002.2
2022-11-09T02:00:09.690Z,1002.2
2022-11-09T02:03:00.626Z,1002.1
2022-11-09T02:05:52.117Z,1002.2
2022-11-09T02:08:39.621Z,1002.1
2022-11-09T02:11:29.301Z,1002.1
2022-11-09T02:14:16.644Z,1002.2
2022-11-09T02:17:08.060Z,1002.2
2022-11-09T02:19:56.426Z,1002.3
2022-11-09T02:22:43.787Z,1002.3
2022-11-09T02:25:31.452Z,1002.2
2022-11-09T02:28:18.753Z,1002.4
2022-11-09T02:31:06.772Z,1002.3
2022-11-09T02:33:58.323Z,1002.2
2022-11-09T02:36:49.832Z,1002.2
2022-11-09T02:39:37.843Z,1002.3
2022-11-09T02:42:25.387Z,1002.2
2022-11-09T02:45:13.203Z,1002.1
2022-11-09T02:48:00.530Z,1002.1
2022-11-09T02:50:48.541Z,1002.1
2022-11-09T02:53:36.262Z,1002.1
2022-11-09T02:56:24.551Z,1002.1
2022-11-09T02:59:11.909Z,1002.1
2022-11-09T03:01:59.204Z,1002.2
2022-11-09T03:04:46.568Z,1002.1
2022-11-09T03:07:34.069Z,1002.2
2022-11-09T03:10:22.152Z,1002.1
2022-11-09T03:13:09.529Z,1002.2
2022-11-09T03:15:56.895Z,1002.1
2022-11-09T03:18:48.961Z,1002.1
2022-11-09T03:21:37.099Z,1002.1
2022-11-09T03:24:25.380Z,1002.1
2022-11-09T03:27:12.736Z,1002
2022-11-09T03:30:00.292Z,1002
2022-11-09T03:32:50.772Z,1002
2022-11-09T03:35:43.787Z,1002.1
2022-11-09T03:38:31.374Z,1002.2
2022-11-09T03:41:18.644Z,1002.2
2022-11-09T03:44:05.976Z,1002.1
2022-11-09T03:46:53.328Z,1002.1
2022-11-09T03:49:40.600Z,1002
2022-11-09T03:52:27.959Z,1002
2022-11-09T03:55:15.291Z,1002
2022-11-09T03:58:02.793Z,1002
2022-11-09T04:00:51.621Z,1001.9
2022-11-09T04:03:38.904Z,1001.8
2022-11-09T04:06:26.293Z,1001.9
2022-11-09T04:09:13.692Z,1001.9
2022-11-09T04:12:02.055Z,1001.9
2022-11-09T04:14:50.271Z,1001.9
2022-11-09T04:17:37.904Z,1001.9
2022-11-09T04:20:26.347Z,1001.9
2022-11-09T04:23:15.893Z,1001.9
2022-11-09T04:26:03.356Z,1001.8
2022-11-09T04:28:50.925Z,1001.7
2022-11-09T04:31:38.668Z,1001.8
2022-11-09T04:34:25.881Z,1001.8
2022-11-09T04:37:13.329Z,1001.7
2022-11-09T04:40:00.652Z,1001.7
2022-11-09T04:42:48.754Z,1001.9
2022-11-09T04:45:36.653Z,1001.9
2022-11-09T04:48:25.209Z,1001.9
2022-11-09T04:51:12.543Z,1001.8
2022-11-09T04:53:59.896Z,1001.7
2022-11-09T04:56:47.214Z,1001.7
2022-11-09T04:59:34.665Z,1001.7
2022-11-09T05:02:22.850Z,1001.6
2022-11-09T05:05:10.119Z,1001.6
2022-11-09T05:07:57.364Z,1001.8
2022-11-09T05:10:44.979Z,1001.8
2022-11-09T05:13:32.303Z,1001.8
2022-11-09T05:16:19.630Z,1001.8
2022-11-09T05:19:07.883Z,1001.8
2022-11-09T05:21:55.737Z,1001.8
2022-11-09T05:26:43.358Z,1001.8
2022-11-09T05:29:30.673Z,1001.8
2022-11-09T05:32:17.889Z,1001.9
2022-11-09T05:35:05.223Z,1001.9
2022-11-09T05:37:53.373Z,1001.9
2022-11-09T05:40:40.737Z,1001.9
2022-11-09T05:43:28.146Z,1001.8
2022-11-09T05:46:15.520Z,1001.7
2022-11-09T05:49:03.644Z,1001.8
2022-11-09T05:51:50.952Z,1001.7
2022-11-09T05:54:38.601Z,1001.7
2022-11-09T05:57:26.018Z,1001.8
2022-11-09T06:00:13.944Z,1001.7
2022-11-09T06:03:02.062Z,1001.7
2022-11-09T06:05:51.081Z,1001.7
2022-11-09T06:08:38.368Z,1001.7
2022-11-09T06:11:26.644Z,1001.8
2022-11-09T06:14:14.312Z,1001.8
2022-11-09T06:17:01.861Z,1001.8
2022-11-09T06:19:49.239Z,1001.8
2022-11-09T06:22:37.030Z,1001.8
2022-11-09T06:25:24.958Z,1001.8
2022-11-09T06:28:12.839Z,1001.9
2022-11-09T06:31:00.218Z,1001.9
2022-11-09T06:33:51.077Z,1001.9
2022-11-09T06:36:38.689Z,1001.9
2022-11-09T06:39:25.940Z,1001.9
2022-11-09T06:42:13.251Z,1002
2022-11-09T06:45:00.584Z,1002
2022-11-09T06:47:48.061Z,1002.2
2022-11-09T06:50:35.775Z,1002.3
2022-11-09T06:53:24.563Z,1002.2
2022-11-09T06:56:14.399Z,1002.2
2022-11-09T06:59:02.426Z,1002.2
2022-11-09T07:01:49.923Z,1002.1
2022-11-09T07:04:37.747Z,1002.1
2022-11-09T07:07:28.117Z,1002.1
2022-11-09T07:10:16.749Z,1002.1
2022-11-09T07:13:04.539Z,1002.2
2022-11-09T07:15:52.749Z,1002.2
2022-11-09T07:18:40.093Z,1002.3
2022-11-09T07:21:27.442Z,1002.4
2022-11-09T07:24:14.633Z,1002.3
2022-11-09T07:27:02.427Z,1002.4
2022-11-09T07:29:49.892Z,1002.3
2022-11-09T07:33:07.563Z,1002.3
2022-11-09T07:35:59.942Z,1002.2
2022-11-09T07:38:49.311Z,1002.1
2022-11-09T07:41:36.859Z,1002.1
2022-11-09T07:44:25.370Z,1002
2022-11-09T07:47:15.753Z,1002.1
2022-11-09T07:50:05.915Z,1002.1
2022-11-09T07:52:53.990Z,1002.2
2022-11-09T07:55:41.966Z,1002
2022-11-09T07:58:29.471Z,1002.1
2022-11-09T08:01:18.896Z,1002
2022-11-09T08:04:06.218Z,1001.9
2022-11-09T08:06:54.373Z,1002.1
2022-11-09T08:09:41.724Z,1001.9
2022-11-09T08:12:32.975Z,1002
2022-11-09T08:15:25.285Z,1002.1
2022-11-09T08:18:13.504Z,1002.1
2022-11-09T08:21:04.392Z,1002
2022-11-09T08:23:51.845Z,1002.1
2022-11-09T08:26:39.144Z,1002.2
2022-11-09T08:29:27.054Z,1002.1
2022-11-09T08:32:14.396Z,1002.2
2022-11-09T08:35:01.840Z,1002.2
2022-11-09T08:37:50.257Z,1002.2
2022-11-09T08:40:38.809Z,1002.2
2022-11-09T08:43:26.291Z,1002.1
2022-11-09T08:46:13.621Z,1002.2
2022-11-09T08:49:00.919Z,1002.3
2022-11-09T08:51:48.378Z,1002.3
2022-11-09T08:54:36.593Z,1002.3
2022-11-09T08:57:25.196Z,1002.3
2022-11-09T09:00:13.152Z,1002.4
2022-11-09T09:03:01.559Z,1002.5
2022-11-09T09:05:50.202Z,1002.3
2022-11-09T09:08:37.845Z,1002.3
2022-11-09T09:11:25.900Z,1002.3
2022-11-09T09:14:13.763Z,1002.4
2022-11-09T09:17:01.335Z,1002.3
2022-11-09T09:19:50.284Z,1002.5
2022-11-09T09:22:38.197Z,1002.4
2022-11-09T09:25:25.817Z,1002.3
2022-11-09T09:28:14.036Z,1002.5
2022-11-09T09:31:01.434Z,1002.6
2022-11-09T09:33:49.688Z,1002.4
2022-11-09T09:36:37.347Z,1002.4
2022-11-09T09:39:25.887Z,1002.4
2022-11-09T09:42:13.527Z,1002.3
2022-11-09T09:45:06.301Z,1002.4
2022-11-09T09:48:03.159Z,1002.4
2022-11-09T09:51:10.665Z,1002.4
2022-11-09T09:54:04.600Z,1002.4
2022-11-09T09:56:57.377Z,1002.4
2022-11-09T09:59:46.688Z,1002.4
2022-11-09T10:02:37.079Z,1002.4
2022-11-09T10:05:25.659Z,1002.4
2022-11-09T10:08:25.076Z,1002.5
2022-11-09T10:11:23.599Z,1002.5
2022-11-09T10:14:22.034Z,1002.6
2022-11-09T10:17:25.496Z,1002.6
2022-11-09T10:20:23.582Z,1002.6
2022-11-09T10:23:21.906Z,1002.7
2022-11-09T10:26:24.572Z,1002.6
2022-11-09T10:29:19.213Z,1002.6
2022-11-09T10:32:09.129Z,1002.6
2022-11-09T10:35:00.479Z,1002.7
2022-11-09T10:37:55.403Z,1002.7
2022-11-09T10:40:42.892Z,1002.7
2022-11-09T10:43:37.707Z,1002.7
2022-11-09T10:46:25.867Z,1002.8
2022-11-09T10:49:13.195Z,1002.8
2022-11-09T10:52:05.700Z,1002.8
2022-11-09T10:55:24.390Z,1002.7
2022-11-09T10:58:14.097Z,1002.7
2022-11-09T11:01:12.174Z,1002.7
2022-11-09T11:04:02.473Z,1002.7
2022-11-09T11:07:05.913Z,1002.7
2022-11-09T11:09:59.962Z,1002.6
2022-11-09T11:12:55.765Z,1002.7
2022-11-09T11:16:04.825Z,1002.7
2022-11-09T11:19:01.078Z,1002.7
2022-11-09T11:21:49.916Z,1002.7
2022-11-09T11:25:03.912Z,1002.6
2022-11-09T11:28:04.227Z,1002.5
2022-11-09T11:31:02.972Z,1002.5
2022-11-09T11:33:56.498Z,1002.6
2022-11-09T11:36:44.143Z,1002.5
2022-11-09T11:39:42.051Z,1002.5
2022-11-09T11:42:43.406Z,1002.6
2022-11-09T11:45:44.144Z,1002.5
2022-11-09T11:48:39.155Z,1002.6
2022-11-09T11:51:48.372Z,1002.6
2022-11-09T11:54:44.079Z,1002.6
2022-11-09T11:57:47.974Z,1002.5
2022-11-09T12:00:51.917Z,1002.6
2022-11-09T12:03:50.536Z,1002.5
2022-11-09T12:06:48.001Z,1002.4
2022-11-09T12:09:49.975Z,1002.6
2022-11-09T12:12:59.795Z,1002.5
2022-11-09T12:15:57.747Z,1002.5
2022-11-09T12:18:52.932Z,1002.3
2022-11-09T12:21:58.799Z,1002.4
2022-11-09T12:24:53.918Z,1002.4
2022-11-09T12:27:47.921Z,1002.4
2022-11-09T12:30:48.786Z,1002.4
2022-11-09T12:33:49.861Z,1002.5
2022-11-09T12:36:47.048Z,1002.4
2022-11-09T12:39:39.575Z,1002.3
2022-11-09T12:42:30.958Z,1002.2
2022-11-09T12:45:28.523Z,1002.3
2022-11-09T12:48:19.157Z,1002.4
2022-11-09T12:51:10.552Z,1002.3
2022-11-09T12:53:58.098Z,1002.2
2022-11-09T12:56:54.625Z,1002.2
2022-11-09T12:59:44.866Z,1002.1
2022-11-09T13:02:34.798Z,1002.3
2022-11-09T13:05:27.844Z,1002.4
2022-11-09T13:08:17.566Z,1002.6
2022-11-09T13:11:11.103Z,1002.5
2022-11-09T13:14:10.847Z,1002.4
2022-11-09T13:17:30.474Z,1002.4
2022-11-09T13:20:54.678Z,1002.5
2022-11-09T13:24:23.170Z,1002.5
2022-11-09T13:27:44.725Z,1002.3
2022-11-09T13:30:33.263Z,1002.3
2022-11-09T13:33:27.218Z,1002.2
2022-11-09T13:36:15.746Z,1002.2
2022-11-09T13:39:05.383Z,1002.2
2022-11-09T13:42:24.924Z,1002.2
2022-11-09T13:45:16.142Z,1002.2
2022-11-09T13:48:12.772Z,1002.2
2022-11-09T13:51:20.183Z,1002.2
2022-11-09T13:54:11.522Z,1002.2
2022-11-09T13:57:16.948Z,1002.2
2022-11-09T14:00:05.524Z,1002.4
2022-11-09T14:03:03.452Z,1002.5
2022-11-09T14:06:08.649Z,1002.5
2022-11-09T14:08:58.166Z,1002.5
2022-11-09T14:11:46.609Z,1002.5
2022-11-09T14:14:49.445Z,1002.6
2022-11-09T14:17:52.599Z,1002.6
2022-11-09T14:20:55.463Z,1002.6
2022-11-09T14:23:52.766Z,1002.6
2022-11-09T14:26:40.181Z,1002.4
2022-11-09T14:29:47.020Z,1002.5
2022-11-09T14:32:38.182Z,1002.5
2022-11-09T14:35:32.419Z,1002.5
2022-11-09T14:38:22.399Z,1002.5
2022-11-09T14:41:13.692Z,1002.5
2022-11-09T14:44:07.086Z,1002.6
2022-11-09T14:47:02.404Z,1002.6
2022-11-09T14:49:51.073Z,1002.6
2022-11-09T14:52:38.703Z,1002.6
2022-11-09T14:55:26.476Z,1002.7
2022-11-09T14:58:15.431Z,1002.6
2022-11-09T15:01:04.951Z,1002.6
2022-11-09T15:03:55.708Z,1002.6
2022-11-09T15:07:01.491Z,1002.6
2022-11-09T15:09:50.058Z,1002.5
2022-11-09T15:12:46.393Z,1002.7
2022-11-09T15:15:39.542Z,1002.7
2022-11-09T15:18:30.433Z,1002.7
2022-11-09T15:21:27.125Z,1002.6
2022-11-09T15:24:20.932Z,1002.7
2022-11-09T15:27:10.792Z,1002.6
2022-11-09T15:30:17.894Z,1002.6
2022-11-09T15:33:16.673Z,1002.5
2022-11-09T15:36:10.303Z,1002.6
2022-11-09T15:39:13.619Z,1002.5
2022-11-09T15:42:03.563Z,1002.6
2022-11-09T15:44:51.211Z,1002.6
2022-11-09T15:47:40.756Z,1002.6
2022-11-09T15:50:37.147Z,1002.6
2022-11-09T15:53:25.481Z,1002.5
2022-11-09T15:56:12.939Z,1002.5
2022-11-09T15:59:02.823Z,1002.5
2022-11-09T16:01:51.405Z,1002.5
2022-11-09T16:04:40.548Z,1002.5
2022-11-09T16:07:27.936Z,1002.5
2022-11-09T16:10:15.392Z,1002.5
2022-11-09T16:13:04.889Z,1002.5
2022-11-09T16:15:53.442Z,1002.6
2022-11-09T16:18:47.714Z,1002.6
2022-11-09T16:21:35.089Z,1002.7
2022-11-09T16:24:23.267Z,1002.7
2022-11-09T16:27:22.262Z,1002.6
2022-11-09T16:30:23.781Z,1002.7
2022-11-09T16:33:11.163Z,1002.7
2022-11-09T16:35:58.621Z,1002.8
2022-11-09T16:38:49.421Z,1002.7
2022-11-09T16:41:38.918Z,1002.8
2022-11-09T16:44:27.457Z,1002.8
2022-11-09T16:47:18.896Z,1002.8
2022-11-09T16:50:06.692Z,1002.8
2022-11-09T16:52:54.761Z,1002.7
2022-11-09T16:55:42.201Z,1002.8
2022-11-09T16:58:29.400Z,1002.8
2022-11-09T17:01:20.719Z,1002.8
2022-11-09T17:04:10.882Z,1002.8
2022-11-09T17:06:58.799Z,1002.8
2022-11-09T17:09:46.295Z,1002.9
2022-11-09T17:12:33.819Z,1002.8
2022-11-09T17:15:22.198Z,1002.8
2022-11-09T17:18:10.540Z,1002.8
2022-11-09T17:20:58.855Z,1002.8
2022-11-09T17:23:46.309Z,1002.8
2022-11-09T17:26:35.101Z,1002.8
2022-11-09T17:29:23.457Z,1002.7
2022-11-09T17:32:12.050Z,1002.8
2022-11-09T17:34:59.597Z,1002.7
2022-11-09T17:37:47.027Z,1002.8
2022-11-09T17:40:34.488Z,1002.8
2022-11-09T17:43:22.859Z,1002.9
2022-11-09T17:46:10.744Z,1002.9
2022-11-09T17:49:02.670Z,1002.9
2022-11-09T17:51:53.890Z,1002.9
2022-11-09T17:54:42.227Z,1003
2022-11-09T17:57:29.711Z,1003
2022-11-09T18:00:17.382Z,1003
2022-11-09T18:03:05.415Z,1003.1
2022-11-09T18:05:52.723Z,1003.1
2022-11-09T18:08:40.140Z,1003.2
2022-11-09T18:11:28.425Z,1003.1
2022-11-09T18:14:15.937Z,1003.1
2022-11-09T18:17:03.488Z,1003.2
2022-11-09T18:19:50.847Z,1003.2
2022-11-09T18:22:38.538Z,1003.1
2022-11-09T18:25:26.211Z,1003.2
2022-11-09T18:28:13.587Z,1003.1
2022-11-09T18:31:00.957Z,1003.1
2022-11-09T18:33:50.285Z,1003.2
2022-11-09T18:36:38.227Z,1003.1
2022-11-09T18:39:26.311Z,1003.2
2022-11-09T18:42:13.673Z,1003.1
2022-11-09T18:45:01.002Z,1003.1
2022-11-09T18:47:49.179Z,1003.1
2022-11-09T18:50:36.602Z,1002.9
2022-11-09T18:53:25.273Z,1003.2
2022-11-09T18:56:15.113Z,1003.1
2022-11-09T18:59:06.283Z,1003.1
2022-11-09T19:01:57.038Z,1003.1
2022-11-09T19:04:44.487Z,1003.1
2022-11-09T19:07:32.842Z,1003.2
2022-11-09T19:10:20.248Z,1003.2
2022-11-09T19:13:07.526Z,1003.2
2022-11-09T19:15:58.295Z,1003.3
2022-11-09T19:18:46.390Z,1003.3
2022-11-09T19:21:33.950Z,1003.3
2022-11-09T19:24:24.885Z,1003.3
2022-11-09T19:27:14.497Z,1003.3
2022-11-09T19:30:07.932Z,1003.3
2022-11-09T19:32:57.310Z,1003.4
2022-11-09T19:35:52.748Z,1003.5
2022-11-09T19:38:50.185Z,1003.5
2022-11-09T19:41:37.805Z,1003.5
2022-11-09T19:44:26.133Z,1003.5
2022-11-09T19:47:13.442Z,1003.5
2022-11-09T19:50:02.375Z,1003.5
2022-11-09T19:52:51.901Z,1003.6
2022-11-09T19:55:40.121Z,1003.6
2022-11-09T19:58:27.615Z,1003.5
2022-11-09T20:01:15.381Z,1003.6
2022-11-09T20:04:07.722Z,1003.6
2022-11-09T20:06:57.646Z,1003.6
2022-11-09T20:09:44.959Z,1003.6
2022-11-09T20:12:32.354Z,1003.7
2022-11-09T20:15:35.573Z,1003.7
2022-11-09T20:18:24.368Z,1003.7
2022-11-09T20:21:11.808Z,1003.6
2022-11-09T20:23:59.882Z,1003.7
2022-11-09T20:26:47.907Z,1003.7
2022-11-09T20:29:35.339Z,1003.7
2022-11-09T20:32:23.674Z,1003.7
2022-11-09T20:35:11.099Z,1003.7
2022-11-09T20:37:58.461Z,1003.6
2022-11-09T20:40:45.823Z,1003.8
2022-11-09T20:43:39.297Z,1003.8
2022-11-09T20:46:32.679Z,1003.8
2022-11-09T20:49:24.101Z,1003.8
2022-11-09T20:52:11.766Z,1003.7
2022-11-09T20:54:59.116Z,1003.8
2022-11-09T20:57:46.572Z,1003.8
2022-11-09T21:00:33.970Z,1003.7
2022-11-09T21:03:22.360Z,1003.7
2022-11-09T21:06:11.437Z,1003.8
2022-11-09T21:09:00.113Z,1003.8
2022-11-09T21:11:50.135Z,1003.7
2022-11-09T21:15:09.439Z,1003.8
2022-11-09T21:17:59.760Z,1003.8
2022-11-09T21:20:47.180Z,1003.8
2022-11-09T21:23:34.536Z,1003.9
2022-11-09T21:26:54.778Z,1003.9
2022-11-09T21:30:13.817Z,1004
2022-11-09T21:33:03.315Z,1003.9
2022-11-09T21:35:51.200Z,1003.9
2022-11-09T21:38:38.864Z,1003.9
2022-11-09T21:41:26.222Z,1003.9
2022-11-09T21:44:29.316Z,1003.8
2022-11-09T21:47:18.142Z,1003.9
2022-11-09T21:50:12.162Z,1004
2022-11-09T21:53:00.617Z,1003.9
2022-11-09T21:55:48.463Z,1004
2022-11-09T21:58:36.096Z,1003.9
2022-11-09T22:01:24.848Z,1004
2022-11-09T22:04:12.212Z,1004
2022-11-09T22:07:00.557Z,1004.1
2022-11-09T22:10:08.796Z,1004.1
2022-11-09T22:12:57.670Z,1004
2022-11-09T22:16:16.645Z,1004.1
2022-11-09T22:19:04.565Z,1004.2
2022-11-09T22:22:23.392Z,1004.1
2022-11-09T22:25:14.411Z,1004.1
2022-11-09T22:28:01.812Z,1004.1
2022-11-09T22:30:49.369Z,1004.2
2022-11-09T22:33:36.885Z,1004.1
2022-11-09T22:36:25.424Z,1004.1
2022-11-09T22:39:12.744Z,1004.2
2022-11-09T22:42:00.317Z,1004.2
2022-11-09T22:44:47.726Z,1004.2
2022-11-09T22:47:35.145Z,1004.2
2022-11-09T22:50:23.548Z,1004.2
2022-11-09T22:53:11.204Z,1004.1
2022-11-09T22:55:58.733Z,1004.1
2022-11-09T22:58:47.839Z,1004.1
2022-11-09T23:01:37.734Z,1004.2
2022-11-09T23:04:26.166Z,1004.1
2022-11-09T23:07:13.549Z,1004.2
2022-11-09T23:10:01.345Z,1004.3
2022-11-09T23:12:50.188Z,1004.2
2022-11-09T23:15:37.808Z,1004.3
2022-11-09T23:18:25.900Z,1004.4
2022-11-09T23:21:45.672Z,1004.4
2022-11-09T23:24:32.849Z,1004.4
2022-11-09T23:29:25.200Z,1004.4
2022-11-09T23:32:12.532Z,1004.5
2022-11-09T23:35:00.097Z,1004.4
2022-11-09T23:37:47.649Z,1004.5
2022-11-09T23:40:43.353Z,1004.5
2022-11-09T23:43:30.912Z,1004.4
2022-11-09T23:46:18.476Z,1004.4
2022-11-09T23:49:05.774Z,1004.5
2022-11-09T23:51:53.012Z,1004.4
2022-11-09T23:54:40.900Z,1004.6
2022-11-09T23:57:30.176Z,1004.4
